Donaueschingen-Villingen Airport


Codes: EDTD/ZQL
Name: Donaueschingen-Villingen Airport
City: Donaueschingen
Country: Germany
Elevation: 2231 ft.
Website:
Wikipedia:

Photos at Donaueschingen-Villingen Airport


   Photos courtesy of SpottingLog. You can add your own sightings and photos by signing up for a free trial today.



No photos found.

Weather at Donaueschingen-Villingen Airport


Time (UTC)DescriptionTempratureWindCloud coverageVisibilityPressureHumidity
19-Apr-2024 06:00Overcast Clouds2°C11 mph, SW100%10000m1021hPa92%
19-Apr-2024 09:00Light Snow2°C16 mph, SW100%10000m1019hPa89%
19-Apr-2024 12:00Snow3°C20 mph, N100%0m1016hPa97%
19-Apr-2024 15:00Moderate Rain3°C18 mph, N100%0m1013hPa98%
19-Apr-2024 18:00Moderate Rain3°C16 mph, N100%0m1012hPa98%
19-Apr-2024 21:00Moderate Rain3°C11 mph, NW100%423m1014hPa98%
20-Apr-2024 00:00Light Snow1°C11 mph, NW100%6794m1016hPa95%
20-Apr-2024 03:00Light Snow-0°C9 mph, NW98%10000m1018hPa95%
20-Apr-2024 06:00Overcast Clouds-0°C7 mph, W88%6397m1020hPa94%
20-Apr-2024 09:00Light Snow2°C9 mph, NW100%1380m1020hPa89%
20-Apr-2024 12:00Light Snow4°C11 mph, NW98%10000m1021hPa85%
20-Apr-2024 15:00Light Snow4°C9 mph, NW99%10000m1020hPa85%
20-Apr-2024 18:00Light Snow1°C4 mph, N100%10000m1021hPa94%
20-Apr-2024 21:00Light Snow-0°C2 mph, NW98%10000m1023hPa97%
21-Apr-2024 00:00Overcast Clouds0°C2 mph, NE96%165m1022hPa99%
21-Apr-2024 03:00Light Snow0°C2 mph, NE100%10000m1022hPa93%
21-Apr-2024 06:00Overcast Clouds0°C4 mph, NE100%10000m1023hPa89%
21-Apr-2024 09:00Light Snow2°C7 mph, NE100%9672m1023hPa84%
21-Apr-2024 12:00Light Snow4°C11 mph, NE99%3284m1022hPa72%
21-Apr-2024 15:00Light Rain5°C11 mph, NE100%10000m1021hPa66%
21-Apr-2024 18:00Light Snow1°C7 mph, NE72%10000m1023hPa84%
21-Apr-2024 21:00Few Clouds-2°C7 mph, N17%10000m1024hPa87%
22-Apr-2024 00:00Few Clouds-3°C4 mph, N15%10000m1025hPa90%
22-Apr-2024 03:00Few Clouds-4°C4 mph, N11%10000m1025hPa91%
22-Apr-2024 06:00Few Clouds-1°C4 mph, N18%10000m1024hPa82%
22-Apr-2024 09:00Few Clouds4°C7 mph, NE18%10000m1022hPa56%
22-Apr-2024 12:00Light Rain5°C7 mph, NE59%7858m1022hPa58%
22-Apr-2024 15:00Light Snow5°C7 mph, NE100%10000m1020hPa70%
22-Apr-2024 18:00Light Snow2°C7 mph, NE100%10000m1020hPa87%
22-Apr-2024 21:00Overcast Clouds0°C4 mph, N100%10000m1021hPa90%
23-Apr-2024 00:00Overcast Clouds-1°C2 mph, NW100%10000m1020hPa88%
23-Apr-2024 03:00Overcast Clouds-1°C0 mph, NW100%10000m1018hPa90%
23-Apr-2024 06:00Light Snow0°C2 mph, E100%56m1017hPa97%
23-Apr-2024 09:00Snow2°C4 mph, SE100%1021m1016hPa92%
23-Apr-2024 12:00Light Rain5°C2 mph, E100%10000m1013hPa71%
23-Apr-2024 15:00Light Rain5°C9 mph, NE100%8979m1012hPa81%
23-Apr-2024 18:00Light Snow2°C7 mph, NE100%10000m1012hPa91%
23-Apr-2024 21:00Overcast Clouds2°C7 mph, N100%10000m1013hPa93%
24-Apr-2024 00:00Overcast Clouds-1°C7 mph, N92%10000m1014hPa95%
24-Apr-2024 03:00Overcast Clouds-2°C7 mph, N100%10000m1014hPa96%